createdAt,value
2023-05-19T00:00:52.374Z,100636.53
2023-05-19T00:01:55.224Z,100631.75
2023-05-19T00:02:57.654Z,100637.38
2023-05-19T00:04:03.344Z,100632.91
2023-05-19T00:05:06.079Z,100632.56
2023-05-19T00:06:12.351Z,100636.53
2023-05-19T00:07:18.068Z,100634.19
2023-05-19T00:08:21.106Z,100636.63
2023-05-19T00:09:23.236Z,100637.34
2023-05-19T00:10:27.805Z,100635.00
2023-05-19T00:11:30.355Z,100642.22
2023-05-19T00:12:32.953Z,100640.66
2023-05-19T00:13:35.061Z,100641.44
2023-05-19T00:14:37.192Z,100636.16
2023-05-19T00:15:39.391Z,100637.47
2023-05-19T00:16:42.428Z,100644.16
2023-05-19T00:17:44.670Z,100643.00
2023-05-19T00:18:48.302Z,100645.38
2023-05-19T00:19:50.268Z,100649.78
2023-05-19T00:20:53.541Z,100650.16
2023-05-19T00:21:55.356Z,100652.50
2023-05-19T00:22:57.884Z,100651.66
2023-05-19T00:24:00.024Z,100658.09
2023-05-19T00:25:02.041Z,100656.59
2023-05-19T00:26:04.067Z,100653.44
2023-05-19T00:27:06.139Z,100665.38
2023-05-19T00:28:09.069Z,100663.84
2023-05-19T00:29:11.066Z,100665.50
2023-05-19T00:30:13.551Z,100671.91
2023-05-19T00:31:16.239Z,100677.66
2023-05-19T00:32:18.147Z,100676.19
2023-05-19T00:33:20.307Z,100671.38
2023-05-19T00:34:22.318Z,100678.91
2023-05-19T00:35:24.871Z,100678.91
2023-05-19T00:36:26.879Z,100672.88
2023-05-19T00:37:28.748Z,100685.78
2023-05-19T00:38:33.548Z,100680.22
2023-05-19T00:39:35.501Z,100687.38
2023-05-19T00:40:37.403Z,100684.97
2023-05-19T00:41:39.394Z,100679.38
2023-05-19T00:42:45.131Z,100680.16
2023-05-19T00:43:47.236Z,100682.63
2023-05-19T00:44:49.780Z,100685.78
2023-05-19T00:45:51.852Z,100686.97
2023-05-19T00:46:53.834Z,100680.88
2023-05-19T00:47:56.169Z,100679.34
2023-05-19T00:48:59.511Z,100674.84
2023-05-19T00:50:01.665Z,100679.31
2023-05-19T00:51:06.620Z,100677.78
2023-05-19T00:52:08.879Z,100673.75
2023-05-19T00:53:13.914Z,100683.44
2023-05-19T00:54:16.274Z,100688.66
2023-05-19T00:55:19.072Z,100683.47
2023-05-19T00:56:21.909Z,100684.28
2023-05-19T00:57:24.050Z,100675.16
2023-05-19T00:58:32.851Z,100682.72
2023-05-19T00:59:35.002Z,100679.84
2023-05-19T01:00:39.806Z,100681.44
2023-05-19T01:01:42.171Z,100685.84
2023-05-19T01:02:46.386Z,100681.09
2023-05-19T01:03:50.075Z,100686.25
2023-05-19T01:04:55.561Z,100684.63
2023-05-19T01:09:01.811Z,100689.94
2023-05-19T01:10:07.753Z,100694.31
2023-05-19T01:11:10.428Z,100688.31
2023-05-19T01:12:14.557Z,100677.56
2023-05-19T01:13:19.035Z,100689.19
2023-05-19T01:14:22.056Z,100690.78
2023-05-19T01:15:27.463Z,100697.22
2023-05-19T01:16:39.145Z,100685.25
2023-05-19T01:37:47.959Z,100714.66
2023-05-19T01:38:56.892Z,100715.00
2023-05-19T01:40:10.892Z,100718.22
2023-05-19T01:41:21.832Z,100713.47
2023-05-19T01:42:30.908Z,100705.88
2023-05-19T01:47:32.029Z,100713.41
2023-05-19T03:30:22.893Z,100788.31
2023-05-19T03:31:48.649Z,100790.78
2023-05-19T03:32:55.881Z,100791.50
2023-05-19T03:36:45.908Z,100799.22
2023-05-19T03:37:54.331Z,100793.38
2023-05-19T03:39:25.147Z,100798.19
2023-05-19T03:40:29.952Z,100807.59
2023-05-19T03:41:44.308Z,100798.03
2023-05-19T03:42:54.952Z,100800.72
2023-05-19T03:44:05.067Z,100810.16
2023-05-19T03:45:17.468Z,100811.47
2023-05-19T03:46:26.068Z,100808.78
2023-05-19T03:47:44.660Z,100811.66
2023-05-19T03:52:57.589Z,100825.53
2023-05-19T03:55:27.022Z,100822.53
2023-05-19T03:56:34.440Z,100827.38
2023-05-19T03:59:25.024Z,100824.19
2023-05-19T04:00:29.354Z,100823.50
2023-05-19T04:01:32.623Z,100815.16
2023-05-19T04:02:47.352Z,100832.63
2023-05-19T04:03:52.327Z,100831.00
2023-05-19T04:05:01.575Z,100823.97
2023-05-19T04:06:07.559Z,100823.03
2023-05-19T05:39:34.884Z,100884.16
2023-05-19T05:40:37.172Z,100881.38
2023-05-19T05:41:41.057Z,100884.09
2023-05-19T05:42:49.938Z,100888.50
2023-05-19T05:43:54.466Z,100889.28
2023-05-19T05:45:06.552Z,100890.03
2023-05-19T05:46:09.245Z,100902.44
2023-05-19T05:47:12.574Z,100893.53
2023-05-19T05:48:24.189Z,100890.97
2023-05-19T05:49:36.168Z,100903.91
2023-05-19T05:50:48.595Z,100895.13
2023-05-19T05:52:05.766Z,100897.66
2023-05-19T05:53:19.572Z,100900.38
2023-05-19T05:54:25.787Z,100900.81
2023-05-19T05:55:28.759Z,100898.28
2023-05-19T05:56:33.935Z,100901.66
2023-05-19T05:57:42.137Z,100898.22
2023-05-19T05:58:48.172Z,100900.91
2023-05-19T05:59:51.080Z,100898.28
2023-05-19T06:00:57.249Z,100900.78
2023-05-19T06:02:04.406Z,100900.63
2023-05-19T06:03:08.260Z,100902.94
2023-05-19T06:04:12.088Z,100902.16
2023-05-19T06:05:14.517Z,100903.84
2023-05-19T06:06:18.172Z,100900.75
2023-05-19T06:07:31.873Z,100901.16
2023-05-19T06:08:34.522Z,100901.13
2023-05-19T06:09:37.365Z,100898.72
2023-05-19T06:11:49.392Z,100898.09
2023-05-19T06:12:52.184Z,100907.59
2023-05-19T06:13:56.047Z,100907.22
2023-05-19T06:15:18.353Z,100914.47
2023-05-19T06:16:38.526Z,100913.34
2023-05-19T06:17:41.314Z,100910.94
2023-05-19T06:18:44.129Z,100905.53
2023-05-19T06:19:46.368Z,100908.50
2023-05-19T06:20:52.058Z,100912.47
2023-05-19T06:21:59.808Z,100906.50
2023-05-19T06:23:03.451Z,100904.97
2023-05-19T06:24:06.109Z,100909.44
2023-05-19T06:25:10.065Z,100907.47
2023-05-19T06:26:12.159Z,100910.47
2023-05-19T06:27:14.353Z,100909.81
2023-05-19T06:28:16.590Z,100908.75
2023-05-19T06:29:19.323Z,100909.66
2023-05-19T06:30:22.905Z,100908.69
2023-05-19T06:31:34.578Z,100912.94
2023-05-19T06:32:47.335Z,100903.06
2023-05-19T06:33:49.693Z,100907.31
2023-05-19T06:34:54.358Z,100905.41
2023-05-19T06:35:56.564Z,100902.25
2023-05-19T06:36:59.643Z,100909.13
2023-05-19T06:38:02.192Z,100897.31
2023-05-19T06:39:04.644Z,100898.69
2023-05-19T06:40:08.715Z,100907.81
2023-05-19T06:41:13.460Z,100905.59
2023-05-19T06:42:17.246Z,100908.91
2023-05-19T06:43:32.304Z,100911.88
2023-05-19T06:44:39.316Z,100914.63
2023-05-19T06:45:45.758Z,100923.34
2023-05-19T06:46:47.882Z,100916.84
2023-05-19T06:47:50.058Z,100910.56
2023-05-19T06:48:52.850Z,100912.22
2023-05-19T06:49:58.424Z,100912.66
2023-05-19T06:51:06.810Z,100908.31
2023-05-19T06:52:09.916Z,100913.22
2023-05-19T06:53:11.999Z,100914.03
2023-05-19T06:54:16.415Z,100910.75
2023-05-19T06:55:19.001Z,100914.72
2023-05-19T06:56:22.961Z,100908.78
2023-05-19T06:57:25.551Z,100913.94
2023-05-19T06:58:28.088Z,100912.38
2023-05-19T06:59:31.140Z,100907.91
2023-05-19T07:00:34.900Z,100918.06
2023-05-19T07:01:37.064Z,100908.06
2023-05-19T07:02:39.832Z,100916.38
2023-05-19T07:03:42.579Z,100908.63
2023-05-19T07:04:52.864Z,100907.44
2023-05-19T07:05:59.173Z,100904.41
2023-05-19T07:07:04.373Z,100904.41
2023-05-19T07:08:09.287Z,100902.19
2023-05-19T07:09:13.023Z,100905.34
2023-05-19T07:10:16.102Z,100908.59
2023-05-19T07:11:21.958Z,100909.81
2023-05-19T07:12:26.944Z,100918.13
2023-05-19T07:13:30.251Z,100899.78
2023-05-19T07:14:35.559Z,100905.81
2023-05-19T07:15:40.630Z,100914.25
2023-05-19T07:16:42.736Z,100915.84
2023-05-19T07:17:45.008Z,100911.16
2023-05-19T07:18:47.189Z,100918.28
2023-05-19T07:19:51.169Z,100912.63
2023-05-19T07:20:55.006Z,100915.00
2023-05-19T07:21:57.414Z,100907.31
2023-05-19T07:23:02.778Z,100905.38
2023-05-19T07:24:05.365Z,100903.91
2023-05-19T07:25:08.430Z,100910.00
2023-05-19T07:26:10.682Z,100914.41
2023-05-19T07:27:12.834Z,100909.56
2023-05-19T07:28:14.929Z,100904.00
2023-05-19T07:29:17.530Z,100912.00
2023-05-19T07:30:22.226Z,100911.19
2023-05-19T07:31:24.669Z,100905.97
2023-05-19T07:32:27.088Z,100903.47
2023-05-19T07:33:29.415Z,100915.03
2023-05-19T07:34:34.041Z,100900.38
2023-05-19T07:35:38.162Z,100912.81
2023-05-19T07:36:40.926Z,100904.06
2023-05-19T07:37:45.339Z,100908.06
2023-05-19T07:38:47.984Z,100904.91
2023-05-19T07:39:53.180Z,100898.03
2023-05-19T07:40:55.589Z,100908.38
2023-05-19T07:41:58.420Z,100902.03
2023-05-19T07:43:00.998Z,100916.06
2023-05-19T07:44:07.757Z,100912.88
2023-05-19T07:45:11.669Z,100906.81
2023-05-19T07:46:13.778Z,100907.19
2023-05-19T07:47:15.717Z,100911.19
2023-05-19T07:48:18.988Z,100912.66
2023-05-19T07:49:23.058Z,100909.50
2023-05-19T07:50:25.475Z,100905.63
2023-05-19T07:51:27.432Z,100907.63
2023-05-19T07:52:29.496Z,100903.63
2023-05-19T07:53:31.495Z,100907.22
2023-05-19T07:54:33.475Z,100907.19
2023-05-19T07:55:35.974Z,100905.88
2023-05-19T07:56:38.032Z,100901.97
2023-05-19T07:57:39.957Z,100908.78
2023-05-19T07:58:41.840Z,100905.66
2023-05-19T07:59:43.705Z,100903.69
2023-05-19T08:00:46.332Z,100901.66
2023-05-19T08:01:49.195Z,100896.78
2023-05-19T08:02:53.224Z,100901.66
2023-05-19T08:03:58.810Z,100904.06
2023-05-19T08:05:03.945Z,100907.28
2023-05-19T08:06:06.259Z,100901.75
2023-05-19T08:07:08.637Z,100902.50
2023-05-19T08:08:12.178Z,100891.38
2023-05-19T08:09:14.725Z,100900.16
2023-05-19T08:10:16.841Z,100904.56
2023-05-19T08:11:18.905Z,100897.78
2023-05-19T08:12:21.898Z,100892.19
2023-05-19T08:13:23.834Z,100893.00
2023-05-19T08:14:26.957Z,100902.56
2023-05-19T08:15:28.968Z,100903.78
2023-05-19T08:16:31.109Z,100905.81
2023-05-19T08:17:34.636Z,100894.56
2023-05-19T08:18:39.449Z,100894.56
2023-05-19T08:19:43.137Z,100898.53
2023-05-19T08:20:49.177Z,100892.91
2023-05-19T08:21:53.877Z,100896.81
2023-05-19T08:22:56.178Z,100897.13
2023-05-19T08:24:01.247Z,100904.53
2023-05-19T08:25:08.111Z,100905.28
2023-05-19T08:26:10.252Z,100895.19
2023-05-19T08:27:12.435Z,100897.13
2023-05-19T08:28:14.701Z,100889.28
2023-05-19T08:29:23.247Z,100904.22
2023-05-19T08:30:25.790Z,100895.41
2023-05-19T08:31:28.291Z,100900.59
2023-05-19T08:32:30.398Z,100904.41
2023-05-19T08:33:32.636Z,100901.53
2023-05-19T08:34:35.351Z,100907.13
2023-05-19T08:35:38.201Z,100905.53
2023-05-19T08:36:43.292Z,100904.75
2023-05-19T08:37:45.573Z,100907.38
2023-05-19T08:38:47.696Z,100909.50
2023-05-19T08:39:49.782Z,100903.88
2023-05-19T08:40:52.098Z,100904.63
2023-05-19T08:41:54.577Z,100907.81
2023-05-19T08:42:56.586Z,100903.66
2023-05-19T08:43:58.880Z,100907.56
2023-05-19T08:45:02.437Z,100904.09
2023-05-19T08:46:08.416Z,100904.66
2023-05-19T08:47:13.999Z,100905.22
2023-05-19T08:48:19.393Z,100904.16
2023-05-19T08:49:30.467Z,100907.25
2023-05-19T08:51:14.204Z,100910.00
2023-05-19T08:52:35.627Z,100906.50
2023-05-19T08:53:44.037Z,100902.38
2023-05-19T08:54:53.361Z,100899.88
2023-05-19T08:56:11.519Z,100894.97
2023-05-19T08:57:14.280Z,100901.88
2023-05-19T08:58:20.421Z,100905.63
2023-05-19T08:59:24.470Z,100905.06
2023-05-19T09:00:26.592Z,100902.75
2023-05-19T09:01:30.420Z,100893.38
2023-05-19T09:02:33.316Z,100897.19
2023-05-19T09:03:39.869Z,100897.66
2023-05-19T09:04:46.093Z,100892.84
2023-05-19T09:05:48.782Z,100894.22
2023-05-19T09:06:51.579Z,100892.28
2023-05-19T09:07:53.501Z,100892.44
2023-05-19T09:08:55.402Z,100896.22
2023-05-19T09:09:59.620Z,100886.56
2023-05-19T09:11:01.601Z,100892.56
2023-05-19T09:12:04.224Z,100895.16
2023-05-19T09:13:06.540Z,100900.22
2023-05-19T09:14:08.812Z,100893.69
2023-05-19T09:15:11.941Z,100884.16
2023-05-19T09:16:14.167Z,100887.00
2023-05-19T09:17:16.112Z,100886.22
2023-05-19T09:18:18.771Z,100893.00
2023-05-19T09:19:21.358Z,100888.81
2023-05-19T09:20:25.751Z,100900.66
2023-05-19T09:21:31.606Z,100903.53
2023-05-19T09:22:35.902Z,100897.56
2023-05-19T09:23:37.806Z,100885.69
2023-05-19T09:24:40.766Z,100898.84
2023-05-19T09:25:50.732Z,100896.75
2023-05-19T09:26:58.031Z,100895.13
2023-05-19T09:28:03.036Z,100892.09
2023-05-19T09:29:16.077Z,100889.81
2023-05-19T09:30:18.525Z,100892.06
2023-05-19T09:31:20.589Z,100895.00
2023-05-19T09:32:28.847Z,100883.31
2023-05-19T09:33:34.453Z,100890.66
2023-05-19T09:34:42.177Z,100889.13
2023-05-19T09:35:48.100Z,100887.63
2023-05-19T09:36:50.050Z,100893.19
2023-05-19T09:37:54.973Z,100888.22
2023-05-19T09:38:56.924Z,100883.78
2023-05-19T09:40:00.210Z,100882.09
2023-05-19T09:41:02.232Z,100882.66
2023-05-19T09:42:14.999Z,100880.97
2023-05-19T09:43:17.363Z,100869.63
2023-05-19T09:44:32.729Z,100887.28
2023-05-19T09:45:34.728Z,100880.75
2023-05-19T09:46:38.937Z,100876.22
2023-05-19T09:47:42.110Z,100883.09
2023-05-19T09:48:44.133Z,100872.94
2023-05-19T09:49:50.342Z,100876.84
2023-05-19T09:50:53.122Z,100879.97
2023-05-19T09:51:58.620Z,100881.31
2023-05-19T09:53:04.159Z,100879.44
2023-05-19T09:54:06.124Z,100882.09
2023-05-19T09:55:12.798Z,100880.00
2023-05-19T09:56:15.151Z,100879.56
2023-05-19T09:57:17.106Z,100875.44
2023-05-19T09:58:19.278Z,100873.34
2023-05-19T09:59:25.363Z,100881.16
2023-05-19T10:00:28.120Z,100870.84
2023-05-19T10:01:33.786Z,100874.19
2023-05-19T10:02:41.557Z,100873.31
2023-05-19T10:03:45.023Z,100884.75
2023-05-19T10:04:48.761Z,100879.16
2023-05-19T10:05:53.123Z,100878.44
2023-05-19T10:06:59.584Z,100881.44
2023-05-19T10:08:03.358Z,100883.41
2023-05-19T10:09:08.542Z,100881.41
2023-05-19T10:10:14.049Z,100873.38
2023-05-19T10:11:17.457Z,100863.28
2023-05-19T10:12:22.994Z,100871.97
2023-05-19T10:13:26.121Z,100872.00
2023-05-19T10:14:30.715Z,100872.34
2023-05-19T10:15:46.685Z,100867.44
2023-05-19T10:16:59.742Z,100877.31
2023-05-19T10:18:03.404Z,100866.56
2023-05-19T10:19:07.838Z,100865.22
2023-05-19T10:20:12.767Z,100864.00
2023-05-19T10:21:15.749Z,100869.38
2023-05-19T10:22:17.620Z,100869.66
2023-05-19T10:23:19.735Z,100870.06
2023-05-19T10:24:22.367Z,100867.19
2023-05-19T10:25:24.485Z,100867.94
2023-05-19T10:26:27.636Z,100868.69
2023-05-19T10:27:31.374Z,100868.69
2023-05-19T10:28:39.666Z,100864.34
2023-05-19T10:29:48.577Z,100863.25
2023-05-19T10:30:55.843Z,100870.59
2023-05-19T10:32:06.943Z,100870.47
2023-05-19T10:33:14.807Z,100873.44
2023-05-19T10:34:25.438Z,100876.28
2023-05-19T10:35:38.351Z,100870.25
2023-05-19T10:36:46.383Z,100870.53
2023-05-19T10:38:12.957Z,100870.50
2023-05-19T10:39:25.748Z,100868.50
2023-05-19T10:40:30.329Z,100862.72
2023-05-19T10:41:50.781Z,100867.53
2023-05-19T10:43:04.871Z,100862.47
2023-05-19T10:44:30.951Z,100859.31
2023-05-19T10:45:42.826Z,100863.38
2023-05-19T10:46:44.808Z,100854.88
2023-05-19T10:47:46.885Z,100861.19
2023-05-19T10:48:48.793Z,100872.72
2023-05-19T10:49:55.904Z,100866.63
2023-05-19T10:50:57.969Z,100859.28
2023-05-19T10:51:59.798Z,100864.34
2023-05-19T10:53:02.721Z,100872.66
2023-05-19T10:54:16.098Z,100867.31
2023-05-19T10:55:59.290Z,100867.59
2023-05-19T10:57:01.237Z,100872.03
2023-05-19T10:58:03.790Z,100873.84
2023-05-19T10:59:05.633Z,100870.78
2023-05-19T11:00:31.992Z,100866.28
2023-05-19T11:01:38.399Z,100864.41
2023-05-19T11:02:44.528Z,100865.94
2023-05-19T11:03:48.030Z,100868.31
2023-05-19T11:04:54.341Z,100873.03
2023-05-19T11:06:23.926Z,100873.88
2023-05-19T11:07:26.562Z,100862.63
2023-05-19T11:08:33.607Z,100868.63
2023-05-19T11:09:42.903Z,100863.19
2023-05-19T11:10:46.394Z,100858.75
2023-05-19T11:11:51.115Z,100862.13
2023-05-19T11:12:52.899Z,100856.41
2023-05-19T11:13:56.437Z,100862.94
2023-05-19T11:14:59.793Z,100866.34
2023-05-19T11:16:08.469Z,100861.16
2023-05-19T11:17:16.460Z,100866.19
2023-05-19T11:18:21.763Z,100867.97
2023-05-19T11:19:28.342Z,100858.63
2023-05-19T11:20:34.753Z,100867.16
2023-05-19T11:21:48.337Z,100866.78
2023-05-19T11:23:13.780Z,100858.41
2023-05-19T11:24:39.994Z,100860.59
2023-05-19T11:25:54.463Z,100853.38
2023-05-19T11:26:57.353Z,100853.75
2023-05-19T11:28:00.203Z,100850.19
2023-05-19T11:29:02.472Z,100853.38
2023-05-19T11:30:06.766Z,100865.03
2023-05-19T11:31:10.459Z,100854.06
2023-05-19T11:32:13.251Z,100856.50
2023-05-19T11:33:19.653Z,100859.59
2023-05-19T11:34:25.996Z,100858.06
2023-05-19T11:35:29.906Z,100851.91
2023-05-19T11:36:37.575Z,100862.22
2023-05-19T11:37:41.562Z,100849.41
2023-05-19T11:38:45.256Z,100859.09
2023-05-19T11:39:50.206Z,100860.41
2023-05-19T11:40:56.392Z,100862.59
2023-05-19T11:41:58.358Z,100864.34
2023-05-19T11:43:01.914Z,100861.69
2023-05-19T11:44:03.791Z,100859.31
2023-05-19T11:45:08.466Z,100864.34
2023-05-19T11:46:10.437Z,100858.19
2023-05-19T11:47:14.176Z,100863.19
2023-05-19T11:48:16.140Z,100858.50
2023-05-19T11:49:18.797Z,100866.81
2023-05-19T11:50:20.987Z,100862.09
2023-05-19T11:51:23.194Z,100860.84
2023-05-19T11:52:33.523Z,100856.25
2023-05-19T11:53:50.084Z,100857.72
2023-05-19T11:55:05.844Z,100860.00
2023-05-19T11:56:08.537Z,100859.75
2023-05-19T11:57:16.245Z,100857.84
2023-05-19T11:58:18.575Z,100869.28
2023-05-19T11:59:33.456Z,100863.63
2023-05-19T12:00:43.900Z,100864.63
2023-05-19T12:01:49.729Z,100870.69
2023-05-19T12:02:52.210Z,100869.44
2023-05-19T12:03:54.588Z,100870.13
2023-05-19T12:04:58.862Z,100871.63
2023-05-19T12:06:05.981Z,100871.47
2023-05-19T12:07:12.234Z,100867.44
2023-05-19T12:08:14.423Z,100873.66
2023-05-19T12:09:16.597Z,100871.28
2023-05-19T12:10:31.041Z,100877.41
2023-05-19T12:11:33.199Z,100872.28
2023-05-19T12:12:35.506Z,100871.72
2023-05-19T12:13:38.233Z,100871.84
2023-05-19T12:14:46.639Z,100870.22
2023-05-19T12:15:52.272Z,100866.66
2023-05-19T12:16:54.579Z,100866.97
2023-05-19T12:17:59.133Z,100862.63
2023-05-19T12:19:05.327Z,100864.47
2023-05-19T12:20:12.069Z,100866.94
2023-05-19T12:21:17.906Z,100863.38
2023-05-19T12:22:23.468Z,100867.09
2023-05-19T12:23:26.028Z,100862.31
2023-05-19T12:24:28.062Z,100864.47
2023-05-19T12:25:30.402Z,100862.75
2023-05-19T12:26:33.029Z,100874.03
2023-05-19T12:27:38.161Z,100867.78
2023-05-19T12:28:40.323Z,100865.84
2023-05-19T12:29:42.471Z,100872.94
2023-05-19T12:30:53.524Z,100880.81
2023-05-19T12:31:55.570Z,100873.75
2023-05-19T12:32:58.224Z,100880.53
2023-05-19T12:34:01.650Z,100880.03
2023-05-19T12:35:05.904Z,100877.97
2023-05-19T12:36:08.702Z,100874.41
2023-05-19T12:37:13.865Z,100874.50
2023-05-19T12:38:16.482Z,100876.09
2023-05-19T12:39:19.570Z,100873.59
2023-05-19T12:40:23.615Z,100881.97
2023-05-19T12:41:27.315Z,100880.34
2023-05-19T12:42:31.321Z,100869.94
2023-05-19T12:43:33.895Z,100870.47
2023-05-19T12:44:42.704Z,100874.13
2023-05-19T12:45:45.996Z,100874.03
2023-05-19T12:46:52.342Z,100877.41
2023-05-19T12:47:54.679Z,100867.94
2023-05-19T12:49:01.084Z,100879.47
2023-05-19T12:50:05.488Z,100872.56
2023-05-19T12:51:07.714Z,100877.69
2023-05-19T12:52:12.750Z,100883.88
2023-05-19T12:53:15.589Z,100872.13
2023-05-19T12:54:23.581Z,100877.84
2023-05-19T12:55:26.017Z,100869.56
2023-05-19T12:56:28.182Z,100873.19
2023-05-19T12:57:33.129Z,100863.34
2023-05-19T12:58:35.194Z,100865.69
2023-05-19T12:59:38.676Z,100876.91
2023-05-19T13:00:47.593Z,100873.81
2023-05-19T13:01:59.350Z,100871.63
2023-05-19T13:03:06.808Z,100870.31
2023-05-19T13:04:09.088Z,100876.44
2023-05-19T13:05:12.748Z,100870.59
2023-05-19T13:06:15.086Z,100871.16
2023-05-19T13:07:17.292Z,100873.16
2023-05-19T13:08:21.808Z,100877.84
2023-05-19T13:09:24.327Z,100868.25
2023-05-19T13:10:35.692Z,100875.44
2023-05-19T13:11:39.224Z,100866.66
2023-05-19T13:12:41.636Z,100873.97
2023-05-19T13:13:44.024Z,100872.81
2023-05-19T13:14:46.301Z,100874.44
2023-05-19T13:15:51.818Z,100873.56
2023-05-19T13:16:55.133Z,100877.16
2023-05-19T13:17:58.057Z,100879.81
2023-05-19T13:19:01.774Z,100874.97
2023-05-19T13:20:05.169Z,100872.56
2023-05-19T13:21:07.400Z,100878.53
2023-05-19T13:22:09.756Z,100881.09
2023-05-19T13:23:13.449Z,100880.13
2023-05-19T13:24:15.868Z,100875.69
2023-05-19T13:25:18.527Z,100877.75
2023-05-19T13:26:21.981Z,100882.38
2023-05-19T13:27:24.857Z,100872.75
2023-05-19T13:28:26.883Z,100877.75
2023-05-19T13:29:28.860Z,100877.88
2023-05-19T13:30:34.663Z,100873.00
2023-05-19T13:31:37.172Z,100867.69
2023-05-19T13:32:39.252Z,100869.66
2023-05-19T13:33:41.290Z,100873.88
2023-05-19T13:34:43.273Z,100874.03
2023-05-19T13:35:45.391Z,100872.00
2023-05-19T13:36:49.101Z,100876.72
2023-05-19T13:37:51.143Z,100867.38
2023-05-19T13:38:53.802Z,100872.25
2023-05-19T13:39:59.297Z,100879.38
2023-05-19T13:41:02.299Z,100873.59
2023-05-19T13:42:07.792Z,100867.25
2023-05-19T13:43:10.222Z,100871.19
2023-05-19T13:44:12.174Z,100874.66
2023-05-19T13:45:14.420Z,100865.28
2023-05-19T13:46:17.634Z,100875.03
2023-05-19T13:47:21.701Z,100878.69
2023-05-19T13:48:24.000Z,100875.88
2023-05-19T13:49:26.464Z,100872.25
2023-05-19T13:50:29.878Z,100871.84
2023-05-19T13:51:32.240Z,100878.28
2023-05-19T13:52:34.768Z,100883.56
2023-05-19T13:53:49.578Z,100878.13
2023-05-19T13:54:54.654Z,100871.53
2023-05-19T13:56:01.120Z,100875.16
2023-05-19T13:57:03.399Z,100875.94
2023-05-19T13:58:06.044Z,100873.06
2023-05-19T13:59:08.236Z,100873.84
2023-05-19T14:00:10.972Z,100876.28
2023-05-19T14:01:16.664Z,100872.09
2023-05-19T14:02:19.470Z,100876.19
2023-05-19T14:03:25.257Z,100877.28
2023-05-19T14:04:28.338Z,100872.66
2023-05-19T14:05:31.739Z,100875.88
2023-05-19T14:06:34.032Z,100874.63
2023-05-19T14:07:36.548Z,100872.63
2023-05-19T14:08:38.760Z,100867.44
2023-05-19T14:09:44.119Z,100870.22
2023-05-19T14:10:51.164Z,100875.75
2023-05-19T14:11:53.322Z,100872.75
2023-05-19T14:13:28.951Z,100869.97
2023-05-19T14:14:20.668Z,100867.22
2023-05-19T14:15:29.593Z,100867.00
2023-05-19T14:16:32.084Z,100871.31
2023-05-19T14:17:34.305Z,100867.22
2023-05-19T14:18:36.458Z,100867.13
2023-05-19T14:19:38.574Z,100874.44
2023-05-19T14:20:44.126Z,100873.94
2023-05-19T14:21:48.048Z,100874.16
2023-05-19T14:22:50.844Z,100875.78
2023-05-19T14:23:56.215Z,100880.34
2023-05-19T14:24:58.380Z,100878.69
2023-05-19T14:26:01.926Z,100881.31
2023-05-19T14:27:04.244Z,100881.50
2023-05-19T14:28:06.261Z,100877.44
2023-05-19T14:29:09.765Z,100870.81
2023-05-19T14:30:13.309Z,100876.78
2023-05-19T14:31:16.188Z,100879.91
2023-05-19T14:32:18.269Z,100873.06
2023-05-19T14:33:23.914Z,100881.72
2023-05-19T14:34:28.439Z,100873.72
2023-05-19T14:35:35.114Z,100869.72
2023-05-19T14:36:39.807Z,100871.69
2023-05-19T14:37:41.862Z,100873.50
2023-05-19T14:38:43.941Z,100871.47
2023-05-19T14:39:48.947Z,100872.16
2023-05-19T14:40:55.232Z,100867.75
2023-05-19T14:41:59.854Z,100875.03
2023-05-19T14:43:01.886Z,100863.06
2023-05-19T14:44:04.049Z,100866.19
2023-05-19T14:45:06.515Z,100875.97
2023-05-19T14:46:09.820Z,100867.16
2023-05-19T14:47:12.735Z,100880.72
2023-05-19T14:48:14.852Z,100876.78
2023-05-19T14:49:17.932Z,100876.00
2023-05-19T14:50:20.192Z,100881.56
2023-05-19T14:51:23.487Z,100872.06
2023-05-19T14:52:26.391Z,100876.88
2023-05-19T14:53:28.571Z,100873.03
2023-05-19T14:54:30.643Z,100872.88
2023-05-19T14:55:36.873Z,100874.53
2023-05-19T14:56:38.962Z,100876.13
2023-05-19T14:57:41.099Z,100872.13
2023-05-19T14:58:43.116Z,100876.75
2023-05-19T14:59:45.124Z,100872.09
2023-05-19T15:00:49.695Z,100869.72
2023-05-19T15:01:52.072Z,100866.50
2023-05-19T15:02:55.161Z,100870.41
2023-05-19T15:03:57.264Z,100862.22
2023-05-19T15:05:00.998Z,100863.88
2023-05-19T15:06:09.457Z,100863.88
2023-05-19T15:07:11.750Z,100863.00
2023-05-19T15:08:13.896Z,100860.16
2023-05-19T15:09:15.876Z,100862.13
2023-05-19T15:10:20.522Z,100863.66
2023-05-19T15:11:23.621Z,100864.56
2023-05-19T15:12:25.752Z,100861.47
2023-05-19T15:13:27.808Z,100862.06
2023-05-19T15:14:31.169Z,100860.84
2023-05-19T15:15:34.156Z,100854.41
2023-05-19T15:16:36.262Z,100861.66
2023-05-19T15:17:38.573Z,100863.31
2023-05-19T15:18:40.765Z,100862.47
2023-05-19T15:19:43.296Z,100862.81
2023-05-19T15:20:46.625Z,100864.34
2023-05-19T15:21:50.724Z,100865.56
2023-05-19T15:22:52.889Z,100867.84
2023-05-19T15:23:54.878Z,100858.16
2023-05-19T15:24:58.903Z,100860.56
2023-05-19T15:26:01.617Z,100864.13
2023-05-19T15:27:03.721Z,100863.00
2023-05-19T15:28:05.914Z,100867.63
2023-05-19T15:29:08.138Z,100873.47
2023-05-19T15:30:10.501Z,100862.00
2023-05-19T15:31:13.798Z,100875.09
2023-05-19T15:32:15.844Z,100865.03
2023-05-19T15:33:17.953Z,100867.75
2023-05-19T15:34:21.131Z,100857.13
2023-05-19T15:35:23.248Z,100863.28
2023-05-19T15:36:29.179Z,100866.75
2023-05-19T15:37:31.438Z,100868.31
2023-05-19T15:38:36.056Z,100864.16
2023-05-19T15:39:38.418Z,100868.78
2023-05-19T15:40:42.795Z,100866.81
2023-05-19T15:41:45.209Z,100862.00
2023-05-19T15:42:47.763Z,100864.44
2023-05-19T15:43:51.057Z,100862.03
2023-05-19T15:44:56.137Z,100868.25
2023-05-19T15:45:59.622Z,100861.75
2023-05-19T15:47:04.070Z,100863.88
2023-05-19T15:48:08.533Z,100863.28
2023-05-19T15:49:12.689Z,100868.06
2023-05-19T15:50:18.620Z,100870.41
2023-05-19T15:51:22.983Z,100866.69
2023-05-19T15:52:25.140Z,100864.88
2023-05-19T15:53:27.288Z,100867.66
2023-05-19T15:54:29.446Z,100872.16
2023-05-19T15:55:33.846Z,100874.47
2023-05-19T15:56:36.254Z,100877.28
2023-05-19T15:57:38.301Z,100878.44
2023-05-19T15:58:40.625Z,100870.94
2023-05-19T15:59:42.829Z,100880.16
2023-05-19T16:00:48.764Z,100868.84
2023-05-19T16:01:53.340Z,100870.41
2023-05-19T16:02:55.571Z,100879.13
2023-05-19T16:03:57.734Z,100868.00
2023-05-19T16:05:02.683Z,100867.91
2023-05-19T16:06:05.698Z,100873.59
2023-05-19T16:07:07.735Z,100876.75
2023-05-19T16:08:10.047Z,100873.25
2023-05-19T16:09:13.595Z,100875.31
2023-05-19T16:10:15.802Z,100873.69
2023-05-19T16:11:18.521Z,100876.06
2023-05-19T16:12:20.733Z,100884.03